sensor_id;sensor_type;location;lat;lon;timestamp;P1;durP1;ratioP1;P2;durP2;ratioP2
58408;SDS011;44202;52.730;6.470;2022-08-19T00:00:34;11.85;;;8.45;;
58408;SDS011;44202;52.730;6.470;2022-08-19T00:03:00;9.95;;;8.30;;
58408;SDS011;44202;52.730;6.470;2022-08-19T00:05:26;10.10;;;8.07;;
58408;SDS011;44202;52.730;6.470;2022-08-19T00:07:52;11.90;;;8.00;;
58408;SDS011;44202;52.730;6.470;2022-08-19T00:10:18;9.27;;;7.78;;
58408;SDS011;44202;52.730;6.470;2022-08-19T00:12:45;10.30;;;8.38;;
58408;SDS011;44202;52.730;6.470;2022-08-19T00:15:12;9.82;;;7.57;;
58408;SDS011;44202;52.730;6.470;2022-08-19T00:17:40;10.90;;;8.20;;
58408;SDS011;44202;52.730;6.470;2022-08-19T00:20:08;13.60;;;7.68;;
58408;SDS011;44202;52.730;6.470;2022-08-19T00:22:35;9.38;;;7.38;;
58408;SDS011;44202;52.730;6.470;2022-08-19T00:25:02;11.98;;;8.13;;
58408;SDS011;44202;52.730;6.470;2022-08-19T00:27:28;10.13;;;8.13;;
58408;SDS011;44202;52.730;6.470;2022-08-19T00:29:53;11.00;;;8.35;;
58408;SDS011;44202;52.730;6.470;2022-08-19T00:32:19;10.63;;;8.25;;
58408;SDS011;44202;52.730;6.470;2022-08-19T00:34:45;10.02;;;7.85;;
58408;SDS011;44202;52.730;6.470;2022-08-19T00:37:11;10.30;;;8.07;;
58408;SDS011;44202;52.730;6.470;2022-08-19T00:39:37;12.68;;;7.85;;
58408;SDS011;44202;52.730;6.470;2022-08-19T00:42:03;11.93;;;8.32;;
58408;SDS011;44202;52.730;6.470;2022-08-19T00:44:29;16.00;;;8.80;;
58408;SDS011;44202;52.730;6.470;2022-08-19T00:46:56;10.45;;;8.05;;
58408;SDS011;44202;52.730;6.470;2022-08-19T00:52:09;11.75;;;8.35;;
58408;SDS011;44202;52.730;6.470;2022-08-19T00:57:07;12.50;;;8.05;;
58408;SDS011;44202;52.730;6.470;2022-08-19T00:59:35;10.23;;;7.15;;
58408;SDS011;44202;52.730;6.470;2022-08-19T01:02:03;10.93;;;8.68;;
58408;SDS011;44202;52.730;6.470;2022-08-19T01:04:29;9.63;;;8.40;;
58408;SDS011;44202;52.730;6.470;2022-08-19T01:06:55;13.25;;;8.50;;
58408;SDS011;44202;52.730;6.470;2022-08-19T01:09:22;13.77;;;9.30;;
58408;SDS011;44202;52.730;6.470;2022-08-19T01:11:47;13.68;;;9.57;;
58408;SDS011;44202;52.730;6.470;2022-08-19T01:14:13;10.98;;;9.13;;
58408;SDS011;44202;52.730;6.470;2022-08-19T01:16:41;11.73;;;9.20;;
58408;SDS011;44202;52.730;6.470;2022-08-19T01:19:26;12.18;;;9.48;;
58408;SDS011;44202;52.730;6.470;2022-08-19T01:22:00;12.70;;;9.65;;
58408;SDS011;44202;52.730;6.470;2022-08-19T01:24:31;13.07;;;10.23;;
58408;SDS011;44202;52.730;6.470;2022-08-19T01:26:57;15.98;;;10.48;;
58408;SDS011;44202;52.730;6.470;2022-08-19T01:29:23;10.63;;;9.43;;
58408;SDS011;44202;52.730;6.470;2022-08-19T01:31:49;15.00;;;9.63;;
58408;SDS011;44202;52.730;6.470;2022-08-19T01:34:17;12.13;;;10.45;;
58408;SDS011;44202;52.730;6.470;2022-08-19T01:36:44;15.27;;;10.18;;
58408;SDS011;44202;52.730;6.470;2022-08-19T01:39:16;14.43;;;10.70;;
58408;SDS011;44202;52.730;6.470;2022-08-19T01:41:45;14.50;;;10.90;;
58408;SDS011;44202;52.730;6.470;2022-08-19T01:44:11;14.73;;;11.00;;
58408;SDS011;44202;52.730;6.470;2022-08-19T01:46:37;18.63;;;11.88;;
58408;SDS011;44202;52.730;6.470;2022-08-19T01:49:03;13.52;;;11.40;;
58408;SDS011;44202;52.730;6.470;2022-08-19T01:51:30;18.08;;;11.77;;
58408;SDS011;44202;52.730;6.470;2022-08-19T01:53:57;15.82;;;11.77;;
58408;SDS011;44202;52.730;6.470;2022-08-19T01:56:23;15.70;;;11.23;;
58408;SDS011;44202;52.730;6.470;2022-08-19T01:58:51;16.52;;;11.60;;
58408;SDS011;44202;52.730;6.470;2022-08-19T02:01:22;15.85;;;11.50;;
58408;SDS011;44202;52.730;6.470;2022-08-19T02:03:47;16.85;;;11.77;;
58408;SDS011;44202;52.730;6.470;2022-08-19T02:06:13;21.50;;;11.68;;
58408;SDS011;44202;52.730;6.470;2022-08-19T02:08:39;15.13;;;11.68;;
58408;SDS011;44202;52.730;6.470;2022-08-19T02:11:05;13.30;;;10.85;;
58408;SDS011;44202;52.730;6.470;2022-08-19T02:13:32;19.92;;;12.60;;
58408;SDS011;44202;52.730;6.470;2022-08-19T02:15:59;14.20;;;11.82;;
58408;SDS011;44202;52.730;6.470;2022-08-19T02:18:25;16.77;;;12.13;;
58408;SDS011;44202;52.730;6.470;2022-08-19T02:20:51;17.67;;;12.68;;
58408;SDS011;44202;52.730;6.470;2022-08-19T02:23:17;19.13;;;12.73;;
58408;SDS011;44202;52.730;6.470;2022-08-19T02:25:44;18.60;;;12.18;;
58408;SDS011;44202;52.730;6.470;2022-08-19T02:28:11;18.15;;;12.40;;
58408;SDS011;44202;52.730;6.470;2022-08-19T02:30:38;16.85;;;11.38;;
58408;SDS011;44202;52.730;6.470;2022-08-19T02:33:04;18.48;;;11.90;;
58408;SDS011;44202;52.730;6.470;2022-08-19T02:35:30;19.13;;;12.88;;
58408;SDS011;44202;52.730;6.470;2022-08-19T02:37:56;16.80;;;12.30;;
58408;SDS011;44202;52.730;6.470;2022-08-19T02:40:40;16.63;;;12.35;;
58408;SDS011;44202;52.730;6.470;2022-08-19T02:43:14;17.05;;;12.55;;
58408;SDS011;44202;52.730;6.470;2022-08-19T02:45:40;19.55;;;13.27;;
58408;SDS011;44202;52.730;6.470;2022-08-19T02:48:06;20.17;;;13.07;;
58408;SDS011;44202;52.730;6.470;2022-08-19T02:50:32;17.90;;;13.20;;
58408;SDS011;44202;52.730;6.470;2022-08-19T02:52:58;16.27;;;12.52;;
58408;SDS011;44202;52.730;6.470;2022-08-19T02:55:24;21.45;;;14.15;;
58408;SDS011;44202;52.730;6.470;2022-08-19T02:57:49;20.10;;;13.57;;
58408;SDS011;44202;52.730;6.470;2022-08-19T03:00:15;17.35;;;12.77;;
58408;SDS011;44202;52.730;6.470;2022-08-19T03:02:41;19.25;;;13.88;;
58408;SDS011;44202;52.730;6.470;2022-08-19T03:05:07;24.75;;;14.65;;
58408;SDS011;44202;52.730;6.470;2022-08-19T03:07:35;23.13;;;14.95;;
58408;SDS011;44202;52.730;6.470;2022-08-19T03:10:02;21.83;;;14.63;;
58408;SDS011;44202;52.730;6.470;2022-08-19T03:12:28;21.67;;;14.45;;
58408;SDS011;44202;52.730;6.470;2022-08-19T03:14:54;18.00;;;14.10;;
58408;SDS011;44202;52.730;6.470;2022-08-19T03:17:20;24.95;;;15.07;;
58408;SDS011;44202;52.730;6.470;2022-08-19T03:19:45;22.02;;;15.65;;
58408;SDS011;44202;52.730;6.470;2022-08-19T03:22:11;22.38;;;15.63;;
58408;SDS011;44202;52.730;6.470;2022-08-19T03:24:37;23.25;;;15.20;;
58408;SDS011;44202;52.730;6.470;2022-08-19T03:27:03;25.30;;;16.02;;
58408;SDS011;44202;52.730;6.470;2022-08-19T03:29:30;23.40;;;15.90;;
58408;SDS011;44202;52.730;6.470;2022-08-19T03:31:57;22.45;;;15.93;;
58408;SDS011;44202;52.730;6.470;2022-08-19T03:34:26;29.00;;;16.30;;
58408;SDS011;44202;52.730;6.470;2022-08-19T03:36:57;26.05;;;16.45;;
58408;SDS011;44202;52.730;6.470;2022-08-19T03:39:25;23.08;;;16.40;;
58408;SDS011;44202;52.730;6.470;2022-08-19T03:41:52;26.67;;;17.27;;
58408;SDS011;44202;52.730;6.470;2022-08-19T03:44:22;32.50;;;17.50;;
58408;SDS011;44202;52.730;6.470;2022-08-19T03:46:49;26.15;;;17.58;;
58408;SDS011;44202;52.730;6.470;2022-08-19T03:49:20;29.27;;;18.33;;
58408;SDS011;44202;52.730;6.470;2022-08-19T03:51:48;30.90;;;18.20;;
58408;SDS011;44202;52.730;6.470;2022-08-19T03:54:15;25.90;;;17.33;;
58408;SDS011;44202;52.730;6.470;2022-08-19T03:56:48;25.55;;;16.98;;
58408;SDS011;44202;52.730;6.470;2022-08-19T03:59:19;25.75;;;17.40;;
58408;SDS011;44202;52.730;6.470;2022-08-19T04:01:50;28.90;;;17.60;;
58408;SDS011;44202;52.730;6.470;2022-08-19T04:04:16;28.17;;;16.88;;
58408;SDS011;44202;52.730;6.470;2022-08-19T04:06:42;29.45;;;17.70;;
58408;SDS011;44202;52.730;6.470;2022-08-19T04:09:09;35.95;;;20.80;;
58408;SDS011;44202;52.730;6.470;2022-08-19T04:11:40;31.60;;;17.77;;
58408;SDS011;44202;52.730;6.470;2022-08-19T04:14:09;26.42;;;17.83;;
58408;SDS011;44202;52.730;6.470;2022-08-19T04:16:37;27.77;;;18.10;;
58408;SDS011;44202;52.730;6.470;2022-08-19T04:19:03;33.08;;;18.73;;
58408;SDS011;44202;52.730;6.470;2022-08-19T04:21:29;30.77;;;18.58;;
58408;SDS011;44202;52.730;6.470;2022-08-19T04:23:56;33.55;;;19.40;;
58408;SDS011;44202;52.730;6.470;2022-08-19T04:26:23;30.25;;;19.92;;
58408;SDS011;44202;52.730;6.470;2022-08-19T04:28:51;39.13;;;20.67;;
58408;SDS011;44202;52.730;6.470;2022-08-19T04:31:18;35.55;;;20.73;;
58408;SDS011;44202;52.730;6.470;2022-08-19T04:33:46;34.60;;;20.83;;
58408;SDS011;44202;52.730;6.470;2022-08-19T04:36:16;33.45;;;20.45;;
58408;SDS011;44202;52.730;6.470;2022-08-19T04:38:46;35.78;;;20.50;;
58408;SDS011;44202;52.730;6.470;2022-08-19T04:41:12;38.40;;;21.67;;
58408;SDS011;44202;52.730;6.470;2022-08-19T04:44:04;34.42;;;19.48;;
58408;SDS011;44202;52.730;6.470;2022-08-19T04:46:30;36.53;;;20.85;;
58408;SDS011;44202;52.730;6.470;2022-08-19T04:48:59;37.08;;;21.02;;
58408;SDS011;44202;52.730;6.470;2022-08-19T04:51:29;29.98;;;19.77;;
58408;SDS011;44202;52.730;6.470;2022-08-19T04:53:56;36.67;;;19.95;;
58408;SDS011;44202;52.730;6.470;2022-08-19T04:56:22;38.90;;;21.02;;
58408;SDS011;44202;52.730;6.470;2022-08-19T04:58:51;32.35;;;19.35;;
58408;SDS011;44202;52.730;6.470;2022-08-19T05:01:23;32.78;;;19.50;;
58408;SDS011;44202;52.730;6.470;2022-08-19T05:03:50;29.02;;;18.58;;
58408;SDS011;44202;52.730;6.470;2022-08-19T05:06:17;36.55;;;21.05;;
58408;SDS011;44202;52.730;6.470;2022-08-19T05:08:44;35.15;;;19.08;;
58408;SDS011;44202;52.730;6.470;2022-08-19T05:11:12;37.45;;;20.52;;
58408;SDS011;44202;52.730;6.470;2022-08-19T05:13:45;37.55;;;21.23;;
58408;SDS011;44202;52.730;6.470;2022-08-19T05:16:12;27.55;;;17.70;;
58408;SDS011;44202;52.730;6.470;2022-08-19T05:18:39;32.28;;;19.13;;
58408;SDS011;44202;52.730;6.470;2022-08-19T05:21:24;30.92;;;19.23;;
58408;SDS011;44202;52.730;6.470;2022-08-19T05:24:10;34.58;;;19.55;;
58408;SDS011;44202;52.730;6.470;2022-08-19T05:26:39;35.10;;;19.92;;
58408;SDS011;44202;52.730;6.470;2022-08-19T05:29:07;33.25;;;20.42;;
58408;SDS011;44202;52.730;6.470;2022-08-19T05:31:34;36.08;;;20.60;;
58408;SDS011;44202;52.730;6.470;2022-08-19T05:34:00;32.22;;;19.30;;
58408;SDS011;44202;52.730;6.470;2022-08-19T05:36:27;33.80;;;19.30;;
58408;SDS011;44202;52.730;6.470;2022-08-19T05:38:53;33.75;;;20.65;;
58408;SDS011;44202;52.730;6.470;2022-08-19T05:41:20;31.13;;;20.42;;
58408;SDS011;44202;52.730;6.470;2022-08-19T05:43:46;36.67;;;21.17;;
58408;SDS011;44202;52.730;6.470;2022-08-19T05:46:18;35.42;;;22.05;;
58408;SDS011;44202;52.730;6.470;2022-08-19T05:48:48;33.13;;;22.10;;
58408;SDS011;44202;52.730;6.470;2022-08-19T05:51:14;30.00;;;22.35;;
58408;SDS011;44202;52.730;6.470;2022-08-19T05:53:53;31.73;;;21.48;;
58408;SDS011;44202;52.730;6.470;2022-08-19T05:56:18;36.42;;;22.83;;
58408;SDS011;44202;52.730;6.470;2022-08-19T05:58:45;31.23;;;21.92;;
58408;SDS011;44202;52.730;6.470;2022-08-19T06:01:29;32.90;;;22.33;;
58408;SDS011;44202;52.730;6.470;2022-08-19T06:03:54;31.40;;;22.25;;
58408;SDS011;44202;52.730;6.470;2022-08-19T06:06:21;37.63;;;23.73;;
58408;SDS011;44202;52.730;6.470;2022-08-19T06:08:47;28.67;;;19.95;;
58408;SDS011;44202;52.730;6.470;2022-08-19T06:13:47;29.63;;;21.95;;
58408;SDS011;44202;52.730;6.470;2022-08-19T06:16:16;27.83;;;20.73;;
58408;SDS011;44202;52.730;6.470;2022-08-19T06:18:47;26.10;;;21.05;;
58408;SDS011;44202;52.730;6.470;2022-08-19T06:21:15;27.90;;;20.25;;
58408;SDS011;44202;52.730;6.470;2022-08-19T06:23:40;29.55;;;20.27;;
58408;SDS011;44202;52.730;6.470;2022-08-19T06:26:07;28.90;;;20.30;;
58408;SDS011;44202;52.730;6.470;2022-08-19T06:28:37;27.85;;;20.23;;
58408;SDS011;44202;52.730;6.470;2022-08-19T06:31:07;24.65;;;19.02;;
58408;SDS011;44202;52.730;6.470;2022-08-19T06:33:34;22.65;;;18.05;;
58408;SDS011;44202;52.730;6.470;2022-08-19T06:36:00;23.45;;;18.27;;
58408;SDS011;44202;52.730;6.470;2022-08-19T06:38:25;23.33;;;18.02;;
58408;SDS011;44202;52.730;6.470;2022-08-19T06:40:59;23.42;;;17.55;;
58408;SDS011;44202;52.730;6.470;2022-08-19T06:43:28;21.83;;;17.33;;
58408;SDS011;44202;52.730;6.470;2022-08-19T06:45:54;22.23;;;16.50;;
58408;SDS011;44202;52.730;6.470;2022-08-19T06:48:20;22.70;;;17.40;;
58408;SDS011;44202;52.730;6.470;2022-08-19T06:50:45;22.75;;;17.48;;
58408;SDS011;44202;52.730;6.470;2022-08-19T06:53:12;21.95;;;14.45;;
58408;SDS011;44202;52.730;6.470;2022-08-19T06:55:38;20.77;;;16.00;;
58408;SDS011;44202;52.730;6.470;2022-08-19T06:58:05;18.70;;;14.70;;
58408;SDS011;44202;52.730;6.470;2022-08-19T07:00:31;19.17;;;14.93;;
58408;SDS011;44202;52.730;6.470;2022-08-19T07:02:57;19.58;;;14.95;;
58408;SDS011;44202;52.730;6.470;2022-08-19T07:05:23;16.63;;;13.35;;
58408;SDS011;44202;52.730;6.470;2022-08-19T07:07:49;17.08;;;14.65;;
58408;SDS011;44202;52.730;6.470;2022-08-19T07:10:15;17.63;;;13.85;;
58408;SDS011;44202;52.730;6.470;2022-08-19T07:12:41;16.90;;;14.40;;
58408;SDS011;44202;52.730;6.470;2022-08-19T07:15:07;17.00;;;14.77;;
58408;SDS011;44202;52.730;6.470;2022-08-19T07:17:34;19.50;;;15.63;;
58408;SDS011;44202;52.730;6.470;2022-08-19T07:20:03;17.98;;;15.23;;
58408;SDS011;44202;52.730;6.470;2022-08-19T07:22:31;16.80;;;14.95;;
58408;SDS011;44202;52.730;6.470;2022-08-19T07:24:58;19.50;;;15.75;;
58408;SDS011;44202;52.730;6.470;2022-08-19T07:27:24;17.70;;;14.52;;
58408;SDS011;44202;52.730;6.470;2022-08-19T07:29:51;16.58;;;14.20;;
58408;SDS011;44202;52.730;6.470;2022-08-19T07:32:18;17.67;;;14.48;;
58408;SDS011;44202;52.730;6.470;2022-08-19T07:34:43;14.30;;;12.82;;
58408;SDS011;44202;52.730;6.470;2022-08-19T07:37:10;16.77;;;13.82;;
58408;SDS011;44202;52.730;6.470;2022-08-19T07:39:36;13.00;;;11.50;;
58408;SDS011;44202;52.730;6.470;2022-08-19T07:42:05;12.02;;;10.07;;
58408;SDS011;44202;52.730;6.470;2022-08-19T07:44:33;15.60;;;14.00;;
58408;SDS011;44202;52.730;6.470;2022-08-19T07:47:00;16.48;;;12.45;;
58408;SDS011;44202;52.730;6.470;2022-08-19T07:49:26;18.48;;;13.95;;
58408;SDS011;44202;52.730;6.470;2022-08-19T07:51:54;17.67;;;13.73;;
58408;SDS011;44202;52.730;6.470;2022-08-19T07:54:31;16.98;;;14.20;;
58408;SDS011;44202;52.730;6.470;2022-08-19T07:57:00;18.30;;;14.73;;
58408;SDS011;44202;52.730;6.470;2022-08-19T07:59:27;15.63;;;13.82;;
58408;SDS011;44202;52.730;6.470;2022-08-19T08:01:54;15.05;;;13.18;;
58408;SDS011;44202;52.730;6.470;2022-08-19T08:04:20;14.70;;;12.60;;
58408;SDS011;44202;52.730;6.470;2022-08-19T08:07:06;17.40;;;13.50;;
58408;SDS011;44202;52.730;6.470;2022-08-19T08:10:08;18.38;;;14.75;;
58408;SDS011;44202;52.730;6.470;2022-08-19T08:12:36;18.52;;;14.13;;
58408;SDS011;44202;52.730;6.470;2022-08-19T08:15:07;17.30;;;14.10;;
58408;SDS011;44202;52.730;6.470;2022-08-19T08:17:41;16.73;;;14.38;;
58408;SDS011;44202;52.730;6.470;2022-08-19T08:20:08;19.83;;;15.50;;
58408;SDS011;44202;52.730;6.470;2022-08-19T08:22:35;18.52;;;14.65;;
58408;SDS011;44202;52.730;6.470;2022-08-19T08:25:21;13.55;;;9.27;;
58408;SDS011;44202;52.730;6.470;2022-08-19T08:27:48;15.68;;;13.60;;
58408;SDS011;44202;52.730;6.470;2022-08-19T08:30:20;17.38;;;14.23;;
58408;SDS011;44202;52.730;6.470;2022-08-19T08:32:48;15.35;;;13.13;;
58408;SDS011;44202;52.730;6.470;2022-08-19T08:35:16;18.98;;;15.77;;
58408;SDS011;44202;52.730;6.470;2022-08-19T08:37:44;19.50;;;15.20;;
58408;SDS011;44202;52.730;6.470;2022-08-19T08:40:28;22.10;;;17.67;;
58408;SDS011;44202;52.730;6.470;2022-08-19T08:45:42;16.92;;;14.90;;
58408;SDS011;44202;52.730;6.470;2022-08-19T08:48:37;17.45;;;14.82;;
58408;SDS011;44202;52.730;6.470;2022-08-19T08:51:23;16.73;;;15.02;;
58408;SDS011;44202;52.730;6.470;2022-08-19T08:53:52;17.58;;;14.10;;
58408;SDS011;44202;52.730;6.470;2022-08-19T08:56:20;15.07;;;13.50;;
58408;SDS011;44202;52.730;6.470;2022-08-19T09:01:26;15.20;;;13.70;;
58408;SDS011;44202;52.730;6.470;2022-08-19T09:03:52;16.65;;;13.75;;
58408;SDS011;44202;52.730;6.470;2022-08-19T09:14:49;10.18;;;9.15;;
58408;SDS011;44202;52.730;6.470;2022-08-19T09:17:25;14.20;;;11.27;;
58408;SDS011;44202;52.730;6.470;2022-08-19T09:25:06;12.25;;;10.68;;
58408;SDS011;44202;52.730;6.470;2022-08-19T09:27:35;11.63;;;10.43;;
58408;SDS011;44202;52.730;6.470;2022-08-19T09:30:03;13.80;;;12.38;;
58408;SDS011;44202;52.730;6.470;2022-08-19T09:32:30;12.10;;;11.00;;
58408;SDS011;44202;52.730;6.470;2022-08-19T09:34:56;14.07;;;11.30;;
58408;SDS011;44202;52.730;6.470;2022-08-19T09:37:23;13.70;;;12.40;;
58408;SDS011;44202;52.730;6.470;2022-08-19T09:39:50;12.63;;;11.43;;
58408;SDS011;44202;52.730;6.470;2022-08-19T09:42:16;11.43;;;10.43;;
58408;SDS011;44202;52.730;6.470;2022-08-19T09:44:42;12.52;;;9.82;;
58408;SDS011;44202;52.730;6.470;2022-08-19T09:47:09;10.30;;;9.27;;
58408;SDS011;44202;52.730;6.470;2022-08-19T09:49:36;10.73;;;9.63;;
58408;SDS011;44202;52.730;6.470;2022-08-19T09:52:04;11.18;;;9.98;;
58408;SDS011;44202;52.730;6.470;2022-08-19T09:54:30;11.60;;;8.73;;
58408;SDS011;44202;52.730;6.470;2022-08-19T09:56:57;12.10;;;10.93;;
58408;SDS011;44202;52.730;6.470;2022-08-19T09:59:25;11.18;;;10.00;;
58408;SDS011;44202;52.730;6.470;2022-08-19T10:01:51;11.93;;;10.82;;
58408;SDS011;44202;52.730;6.470;2022-08-19T10:04:17;11.45;;;9.73;;
58408;SDS011;44202;52.730;6.470;2022-08-19T10:06:44;11.35;;;10.25;;
58408;SDS011;44202;52.730;6.470;2022-08-19T10:09:12;10.25;;;9.32;;
58408;SDS011;44202;52.730;6.470;2022-08-19T10:11:40;11.65;;;9.23;;
58408;SDS011;44202;52.730;6.470;2022-08-19T10:14:07;10.02;;;9.02;;
58408;SDS011;44202;52.730;6.470;2022-08-19T10:16:33;8.73;;;7.43;;
58408;SDS011;44202;52.730;6.470;2022-08-19T10:19:01;9.82;;;8.65;;
58408;SDS011;44202;52.730;6.470;2022-08-19T10:21:29;10.93;;;9.55;;
58408;SDS011;44202;52.730;6.470;2022-08-19T10:23:58;11.32;;;9.98;;
58408;SDS011;44202;52.730;6.470;2022-08-19T10:26:28;15.60;;;12.13;;
58408;SDS011;44202;52.730;6.470;2022-08-19T10:31:29;11.50;;;10.30;;
58408;SDS011;44202;52.730;6.470;2022-08-19T10:33:56;12.75;;;11.52;;
58408;SDS011;44202;52.730;6.470;2022-08-19T10:36:24;12.93;;;11.40;;
58408;SDS011;44202;52.730;6.470;2022-08-19T10:39:02;11.07;;;9.45;;
58408;SDS011;44202;52.730;6.470;2022-08-19T10:41:31;9.35;;;8.45;;
58408;SDS011;44202;52.730;6.470;2022-08-19T10:43:59;10.27;;;9.27;;
58408;SDS011;44202;52.730;6.470;2022-08-19T10:46:30;8.98;;;8.05;;
58408;SDS011;44202;52.730;6.470;2022-08-19T10:48:59;9.18;;;6.55;;
58408;SDS011;44202;52.730;6.470;2022-08-19T10:51:25;10.43;;;8.50;;
58408;SDS011;44202;52.730;6.470;2022-08-19T10:54:10;8.70;;;7.80;;
58408;SDS011;44202;52.730;6.470;2022-08-19T10:56:36;13.80;;;11.23;;
58408;SDS011;44202;52.730;6.470;2022-08-19T10:59:24;16.63;;;11.48;;
58408;SDS011;44202;52.730;6.470;2022-08-19T11:01:52;14.27;;;11.93;;
58408;SDS011;44202;52.730;6.470;2022-08-19T11:04:19;12.10;;;10.63;;
58408;SDS011;44202;52.730;6.470;2022-08-19T11:06:46;13.57;;;11.73;;
58408;SDS011;44202;52.730;6.470;2022-08-19T11:09:17;16.65;;;13.35;;
58408;SDS011;44202;52.730;6.470;2022-08-19T11:11:45;14.30;;;11.90;;
58408;SDS011;44202;52.730;6.470;2022-08-19T11:14:13;12.45;;;10.27;;
58408;SDS011;44202;52.730;6.470;2022-08-19T11:16:40;12.55;;;11.25;;
58408;SDS011;44202;52.730;6.470;2022-08-19T11:19:08;11.73;;;10.50;;
58408;SDS011;44202;52.730;6.470;2022-08-19T11:21:36;14.52;;;13.02;;
58408;SDS011;44202;52.730;6.470;2022-08-19T11:24:05;17.00;;;13.85;;
58408;SDS011;44202;52.730;6.470;2022-08-19T11:26:34;12.52;;;11.23;;
58408;SDS011;44202;52.730;6.470;2022-08-19T11:29:00;15.63;;;13.38;;
58408;SDS011;44202;52.730;6.470;2022-08-19T11:31:28;13.55;;;12.15;;
58408;SDS011;44202;52.730;6.470;2022-08-19T11:34:00;14.05;;;12.07;;
58408;SDS011;44202;52.730;6.470;2022-08-19T11:36:28;13.55;;;10.65;;
58408;SDS011;44202;52.730;6.470;2022-08-19T11:38:56;11.30;;;9.40;;
58408;SDS011;44202;52.730;6.470;2022-08-19T11:41:22;11.25;;;10.05;;
58408;SDS011;44202;52.730;6.470;2022-08-19T11:43:49;12.68;;;10.65;;
58408;SDS011;44202;52.730;6.470;2022-08-19T11:46:16;10.88;;;9.63;;
58408;SDS011;44202;52.730;6.470;2022-08-19T11:48:42;12.85;;;10.80;;
58408;SDS011;44202;52.730;6.470;2022-08-19T11:51:13;12.27;;;10.98;;
58408;SDS011;44202;52.730;6.470;2022-08-19T11:53:41;14.95;;;12.90;;
58408;SDS011;44202;52.730;6.470;2022-08-19T11:56:07;11.60;;;10.13;;
58408;SDS011;44202;52.730;6.470;2022-08-19T11:58:34;13.70;;;10.45;;
58408;SDS011;44202;52.730;6.470;2022-08-19T12:01:00;9.77;;;7.75;;
58408;SDS011;44202;52.730;6.470;2022-08-19T12:03:26;12.18;;;10.93;;
58408;SDS011;44202;52.730;6.470;2022-08-19T12:05:52;14.63;;;12.95;;
58408;SDS011;44202;52.730;6.470;2022-08-19T12:08:18;12.68;;;11.35;;
58408;SDS011;44202;52.730;6.470;2022-08-19T12:10:44;11.50;;;10.38;;
58408;SDS011;44202;52.730;6.470;2022-08-19T12:13:11;8.30;;;7.50;;
58408;SDS011;44202;52.730;6.470;2022-08-19T12:15:40;11.98;;;9.98;;
58408;SDS011;44202;52.730;6.470;2022-08-19T12:18:07;13.77;;;8.90;;
58408;SDS011;44202;52.730;6.470;2022-08-19T12:20:34;10.88;;;9.77;;
58408;SDS011;44202;52.730;6.470;2022-08-19T12:23:05;10.82;;;9.25;;
58408;SDS011;44202;52.730;6.470;2022-08-19T12:25:32;9.60;;;8.65;;
58408;SDS011;44202;52.730;6.470;2022-08-19T12:27:59;11.68;;;9.02;;
58408;SDS011;44202;52.730;6.470;2022-08-19T12:30:25;9.63;;;8.73;;
58408;SDS011;44202;52.730;6.470;2022-08-19T12:32:51;10.27;;;9.18;;
58408;SDS011;44202;52.730;6.470;2022-08-19T12:35:17;10.10;;;8.32;;
58408;SDS011;44202;52.730;6.470;2022-08-19T12:37:45;12.10;;;8.95;;
58408;SDS011;44202;52.730;6.470;2022-08-19T12:40:12;9.20;;;7.25;;
58408;SDS011;44202;52.730;6.470;2022-08-19T12:42:38;8.90;;;6.78;;
58408;SDS011;44202;52.730;6.470;2022-08-19T12:45:10;12.80;;;8.82;;
58408;SDS011;44202;52.730;6.470;2022-08-19T12:47:38;12.07;;;8.75;;
58408;SDS011;44202;52.730;6.470;2022-08-19T12:50:05;11.10;;;8.38;;
58408;SDS011;44202;52.730;6.470;2022-08-19T12:52:34;12.32;;;10.98;;
58408;SDS011;44202;52.730;6.470;2022-08-19T12:55:06;10.55;;;9.40;;
58408;SDS011;44202;52.730;6.470;2022-08-19T12:57:33;15.68;;;12.60;;
58408;SDS011;44202;52.730;6.470;2022-08-19T13:00:02;13.48;;;10.25;;
58408;SDS011;44202;52.730;6.470;2022-08-19T13:02:40;10.95;;;8.38;;
58408;SDS011;44202;52.730;6.470;2022-08-19T13:05:10;13.52;;;11.80;;
58408;SDS011;44202;52.730;6.470;2022-08-19T13:07:41;15.32;;;12.38;;
58408;SDS011;44202;52.730;6.470;2022-08-19T13:10:09;13.15;;;11.35;;
58408;SDS011;44202;52.730;6.470;2022-08-19T13:12:37;10.77;;;8.65;;
58408;SDS011;44202;52.730;6.470;2022-08-19T13:15:06;12.30;;;9.02;;
58408;SDS011;44202;52.730;6.470;2022-08-19T13:17:33;16.20;;;12.20;;
58408;SDS011;44202;52.730;6.470;2022-08-19T13:19:59;13.05;;;10.68;;
58408;SDS011;44202;52.730;6.470;2022-08-19T13:22:25;14.13;;;9.30;;
58408;SDS011;44202;52.730;6.470;2022-08-19T13:24:52;10.65;;;7.32;;
58408;SDS011;44202;52.730;6.470;2022-08-19T13:27:18;9.38;;;7.03;;
58408;SDS011;44202;52.730;6.470;2022-08-19T13:29:46;9.82;;;7.97;;
58408;SDS011;44202;52.730;6.470;2022-08-19T13:32:30;11.23;;;7.72;;
58408;SDS011;44202;52.730;6.470;2022-08-19T13:35:15;11.18;;;7.72;;
58408;SDS011;44202;52.730;6.470;2022-08-19T13:37:41;9.93;;;7.82;;
58408;SDS011;44202;52.730;6.470;2022-08-19T13:40:12;10.68;;;7.97;;
58408;SDS011;44202;52.730;6.470;2022-08-19T13:42:42;11.88;;;9.30;;
58408;SDS011;44202;52.730;6.470;2022-08-19T13:45:08;11.68;;;9.80;;
58408;SDS011;44202;52.730;6.470;2022-08-19T13:47:35;8.95;;;7.13;;
58408;SDS011;44202;52.730;6.470;2022-08-19T13:50:04;7.47;;;5.82;;
58408;SDS011;44202;52.730;6.470;2022-08-19T13:52:30;11.20;;;7.60;;
58408;SDS011;44202;52.730;6.470;2022-08-19T13:54:55;7.15;;;5.65;;
58408;SDS011;44202;52.730;6.470;2022-08-19T13:57:21;5.80;;;5.28;;
58408;SDS011;44202;52.730;6.470;2022-08-19T13:59:47;8.07;;;5.53;;
58408;SDS011;44202;52.730;6.470;2022-08-19T14:02:13;9.73;;;5.90;;
58408;SDS011;44202;52.730;6.470;2022-08-19T14:04:38;9.02;;;6.78;;
58408;SDS011;44202;52.730;6.470;2022-08-19T14:07:04;11.35;;;6.85;;
58408;SDS011;44202;52.730;6.470;2022-08-19T14:09:30;11.00;;;8.02;;
58408;SDS011;44202;52.730;6.470;2022-08-19T14:11:56;8.57;;;6.88;;
58408;SDS011;44202;52.730;6.470;2022-08-19T14:14:22;11.30;;;8.02;;
58408;SDS011;44202;52.730;6.470;2022-08-19T14:16:48;10.23;;;8.35;;
58408;SDS011;44202;52.730;6.470;2022-08-19T14:19:14;15.35;;;12.50;;
58408;SDS011;44202;52.730;6.470;2022-08-19T14:21:39;12.35;;;9.95;;
58408;SDS011;44202;52.730;6.470;2022-08-19T14:24:06;13.43;;;10.13;;
58408;SDS011;44202;52.730;6.470;2022-08-19T14:26:32;16.77;;;14.23;;
58408;SDS011;44202;52.730;6.470;2022-08-19T14:28:58;20.88;;;16.23;;
58408;SDS011;44202;52.730;6.470;2022-08-19T14:31:24;20.55;;;18.10;;
58408;SDS011;44202;52.730;6.470;2022-08-19T14:33:50;19.60;;;13.95;;
58408;SDS011;44202;52.730;6.470;2022-08-19T14:36:16;17.38;;;14.05;;
58408;SDS011;44202;52.730;6.470;2022-08-19T14:38:43;18.08;;;13.50;;
58408;SDS011;44202;52.730;6.470;2022-08-19T14:41:10;20.85;;;15.30;;
58408;SDS011;44202;52.730;6.470;2022-08-19T14:43:38;18.88;;;14.93;;
58408;SDS011;44202;52.730;6.470;2022-08-19T14:46:04;19.15;;;13.15;;
58408;SDS011;44202;52.730;6.470;2022-08-19T14:48:30;16.35;;;11.88;;
58408;SDS011;44202;52.730;6.470;2022-08-19T14:50:56;19.20;;;13.13;;
58408;SDS011;44202;52.730;6.470;2022-08-19T14:53:22;19.02;;;15.07;;
58408;SDS011;44202;52.730;6.470;2022-08-19T14:55:47;16.20;;;12.90;;
58408;SDS011;44202;52.730;6.470;2022-08-19T14:58:13;14.43;;;10.23;;
58408;SDS011;44202;52.730;6.470;2022-08-19T15:00:40;14.40;;;8.73;;